sensor_id;sensor_type;location;lat;lon;timestamp;pressure;altitude;pressure_sealevel;temperature;humidity
74065;BME280;62421;51.412;5.432;2022-09-09T00:03:27;100666.38;;;13.01;94.10
74065;BME280;62421;51.412;5.432;2022-09-09T00:06:16;100659.50;;;12.97;94.07
74065;BME280;62421;51.412;5.432;2022-09-09T00:08:55;100657.22;;;12.92;93.80
74065;BME280;62421;51.412;5.432;2022-09-09T00:11:30;100654.78;;;12.89;93.75
74065;BME280;62421;51.412;5.432;2022-09-09T00:14:03;100652.94;;;12.89;94.35
74065;BME280;62421;51.412;5.432;2022-09-09T00:16:36;100650.13;;;12.91;94.28
74065;BME280;62421;51.412;5.432;2022-09-09T00:19:18;100646.53;;;12.90;94.49
74065;BME280;62421;51.412;5.432;2022-09-09T00:22:23;100653.19;;;12.86;93.93
74065;BME280;62421;51.412;5.432;2022-09-09T00:24:52;100652.09;;;12.89;94.41
74065;BME280;62421;51.412;5.432;2022-09-09T00:30:34;100640.97;;;12.82;93.95
74065;BME280;62421;51.412;5.432;2022-09-09T00:33:01;100646.59;;;12.79;94.61
74065;BME280;62421;51.412;5.432;2022-09-09T00:35:38;100638.38;;;12.81;94.58
74065;BME280;62421;51.412;5.432;2022-09-09T00:40:58;100633.63;;;12.73;94.44
74065;BME280;62421;51.412;5.432;2022-09-09T00:49:13;100629.00;;;12.64;94.50
74065;BME280;62421;51.412;5.432;2022-09-09T00:51:29;100627.03;;;12.66;94.84
74065;BME280;62421;51.412;5.432;2022-09-09T00:56:37;100628.75;;;12.67;95.06
74065;BME280;62421;51.412;5.432;2022-09-09T01:01:35;100625.56;;;12.62;94.85
74065;BME280;62421;51.412;5.432;2022-09-09T01:04:04;100631.06;;;12.60;95.43
74065;BME280;62421;51.412;5.432;2022-09-09T01:06:36;100623.25;;;12.57;95.29
74065;BME280;62421;51.412;5.432;2022-09-09T01:14:24;100618.38;;;12.51;95.20
74065;BME280;62421;51.412;5.432;2022-09-09T01:16:59;100619.38;;;12.50;95.69
74065;BME280;62421;51.412;5.432;2022-09-09T01:27:53;100610.19;;;12.41;95.67
74065;BME280;62421;51.412;5.432;2022-09-09T01:30:21;100610.94;;;12.43;95.68
74065;BME280;62421;51.412;5.432;2022-09-09T01:32:49;100619.88;;;12.44;95.81
74065;BME280;62421;51.412;5.432;2022-09-09T01:35:43;100607.38;;;12.43;95.47
74065;BME280;62421;51.412;5.432;2022-09-09T01:38:10;100607.75;;;12.38;95.34
74065;BME280;62421;51.412;5.432;2022-09-09T01:40:36;100604.19;;;12.38;95.88
74065;BME280;62421;51.412;5.432;2022-09-09T01:43:02;100598.94;;;12.36;96.20
74065;BME280;62421;51.412;5.432;2022-09-09T01:45:28;100601.16;;;12.31;95.77
74065;BME280;62421;51.412;5.432;2022-09-09T01:47:53;100601.28;;;12.29;96.12
74065;BME280;62421;51.412;5.432;2022-09-09T01:50:19;100605.69;;;12.31;95.93
74065;BME280;62421;51.412;5.432;2022-09-09T01:52:49;100598.56;;;12.29;96.18
74065;BME280;62421;51.412;5.432;2022-09-09T01:55:15;100594.03;;;12.30;95.97
74065;BME280;62421;51.412;5.432;2022-09-09T02:00:32;100591.50;;;12.28;96.36
74065;BME280;62421;51.412;5.432;2022-09-09T02:05:41;100576.44;;;12.26;96.37
74065;BME280;62421;51.412;5.432;2022-09-09T02:08:17;100585.63;;;12.23;96.25
74065;BME280;62421;51.412;5.432;2022-09-09T02:13:22;100591.00;;;12.23;96.72
74065;BME280;62421;51.412;5.432;2022-09-09T02:18:32;100593.56;;;12.25;96.65
74065;BME280;62421;51.412;5.432;2022-09-09T02:21:00;100604.34;;;12.25;96.70
74065;BME280;62421;51.412;5.432;2022-09-09T02:23:28;100591.88;;;12.24;96.65
74065;BME280;62421;51.412;5.432;2022-09-09T02:25:55;100582.06;;;12.23;96.77
74065;BME280;62421;51.412;5.432;2022-09-09T02:28:25;100592.84;;;12.23;97.01
74065;BME280;62421;51.412;5.432;2022-09-09T02:30:51;100590.88;;;12.25;97.00
74065;BME280;62421;51.412;5.432;2022-09-09T02:33:25;100570.56;;;12.21;96.78
74065;BME280;62421;51.412;5.432;2022-09-09T02:35:52;100589.03;;;12.25;97.16
74065;BME280;62421;51.412;5.432;2022-09-09T02:38:19;100583.66;;;12.25;97.43
74065;BME280;62421;51.412;5.432;2022-09-09T02:40:46;100586.50;;;12.24;97.42
74065;BME280;62421;51.412;5.432;2022-09-09T02:43:14;100581.97;;;12.24;97.34
74065;BME280;62421;51.412;5.432;2022-09-09T02:45:51;100576.56;;;12.24;97.41
74065;BME280;62421;51.412;5.432;2022-09-09T02:48:37;100581.09;;;12.24;97.51
74065;BME280;62421;51.412;5.432;2022-09-09T02:51:38;100573.25;;;12.21;97.04
74065;BME280;62421;51.412;5.432;2022-09-09T02:54:18;100576.69;;;12.23;97.45
74065;BME280;62421;51.412;5.432;2022-09-09T02:56:52;100583.81;;;12.24;97.43
74065;BME280;62421;51.412;5.432;2022-09-09T02:59:21;100581.56;;;12.29;97.82
74065;BME280;62421;51.412;5.432;2022-09-09T03:01:47;100576.81;;;12.33;97.61
74065;BME280;62421;51.412;5.432;2022-09-09T03:04:12;100575.69;;;12.35;97.57
74065;BME280;62421;51.412;5.432;2022-09-09T03:06:38;100585.25;;;12.39;98.00
74065;BME280;62421;51.412;5.432;2022-09-09T03:09:03;100577.88;;;12.41;97.54
74065;BME280;62421;51.412;5.432;2022-09-09T03:11:29;100574.94;;;12.44;97.92
74065;BME280;62421;51.412;5.432;2022-09-09T03:13:54;100579.34;;;12.45;97.45
74065;BME280;62421;51.412;5.432;2022-09-09T03:16:22;100580.19;;;12.46;97.58
74065;BME280;62421;51.412;5.432;2022-09-09T03:18:47;100571.28;;;12.45;97.48
74065;BME280;62421;51.412;5.432;2022-09-09T03:21:13;100580.44;;;12.43;97.40
74065;BME280;62421;51.412;5.432;2022-09-09T03:23:39;100586.81;;;12.42;97.95
74065;BME280;62421;51.412;5.432;2022-09-09T03:26:04;100591.22;;;12.43;97.55
74065;BME280;62421;51.412;5.432;2022-09-09T03:28:30;100597.31;;;12.45;97.81
74065;BME280;62421;51.412;5.432;2022-09-09T03:31:03;100594.16;;;12.40;97.52
74065;BME280;62421;51.412;5.432;2022-09-09T03:33:29;100587.78;;;12.41;97.71
74065;BME280;62421;51.412;5.432;2022-09-09T03:35:55;100589.00;;;12.37;97.23
74065;BME280;62421;51.412;5.432;2022-09-09T03:38:23;100591.84;;;12.35;97.60
74065;BME280;62421;51.412;5.432;2022-09-09T03:40:52;100586.69;;;12.32;97.25
74065;BME280;62421;51.412;5.432;2022-09-09T03:43:21;100589.38;;;12.32;97.58
74065;BME280;62421;51.412;5.432;2022-09-09T03:45:47;100592.81;;;12.34;97.62
74065;BME280;62421;51.412;5.432;2022-09-09T03:48:13;100597.25;;;12.35;98.01
74065;BME280;62421;51.412;5.432;2022-09-09T03:50:44;100589.50;;;12.42;98.15
74065;BME280;62421;51.412;5.432;2022-09-09T03:53:09;100591.72;;;12.48;98.33
74065;BME280;62421;51.412;5.432;2022-09-09T03:55:34;100597.66;;;12.52;98.37
74065;BME280;62421;51.412;5.432;2022-09-09T03:58:00;100596.44;;;12.56;98.31
74065;BME280;62421;51.412;5.432;2022-09-09T04:00:25;100592.78;;;12.57;98.11
74065;BME280;62421;51.412;5.432;2022-09-09T04:02:51;100591.94;;;12.56;98.36
74065;BME280;62421;51.412;5.432;2022-09-09T04:05:19;100586.28;;;12.59;98.22
74065;BME280;62421;51.412;5.432;2022-09-09T04:07:44;100587.84;;;12.62;98.20
74065;BME280;62421;51.412;5.432;2022-09-09T04:10:10;100589.59;;;12.63;98.33
74065;BME280;62421;51.412;5.432;2022-09-09T04:12:35;100579.78;;;12.62;98.34
74065;BME280;62421;51.412;5.432;2022-09-09T04:15:01;100584.31;;;12.61;98.07
74065;BME280;62421;51.412;5.432;2022-09-09T04:17:27;100576.34;;;12.60;98.37
74065;BME280;62421;51.412;5.432;2022-09-09T04:19:53;100577.34;;;12.59;98.30
74065;BME280;62421;51.412;5.432;2022-09-09T04:22:18;100581.50;;;12.63;98.36
74065;BME280;62421;51.412;5.432;2022-09-09T04:24:43;100579.28;;;12.68;98.81
74065;BME280;62421;51.412;5.432;2022-09-09T04:27:08;100569.09;;;12.72;98.93
74065;BME280;62421;51.412;5.432;2022-09-09T04:29:34;100580.47;;;12.75;98.90
74065;BME280;62421;51.412;5.432;2022-09-09T04:31:59;100572.38;;;12.75;98.64
74065;BME280;62421;51.412;5.432;2022-09-09T04:34:25;100567.88;;;12.76;98.73
74065;BME280;62421;51.412;5.432;2022-09-09T04:36:50;100572.66;;;12.72;98.55
74065;BME280;62421;51.412;5.432;2022-09-09T04:39:17;100558.56;;;12.68;97.93
74065;BME280;62421;51.412;5.432;2022-09-09T04:41:42;100573.16;;;12.66;98.55
74065;BME280;62421;51.412;5.432;2022-09-09T04:44:07;100573.53;;;12.61;98.50
74065;BME280;62421;51.412;5.432;2022-09-09T04:46:33;100567.31;;;12.61;98.68
74065;BME280;62421;51.412;5.432;2022-09-09T04:48:59;100561.03;;;12.60;98.54
74065;BME280;62421;51.412;5.432;2022-09-09T04:51:25;100564.34;;;12.64;98.85
74065;BME280;62421;51.412;5.432;2022-09-09T04:53:50;100573.16;;;12.66;98.82
74065;BME280;62421;51.412;5.432;2022-09-09T04:56:17;100563.00;;;12.69;99.34
74065;BME280;62421;51.412;5.432;2022-09-09T04:58:43;100559.41;;;12.69;99.23
74065;BME280;62421;51.412;5.432;2022-09-09T05:01:17;100555.88;;;12.68;99.06
74065;BME280;62421;51.412;5.432;2022-09-09T05:03:43;100565.06;;;12.66;98.63
74065;BME280;62421;51.412;5.432;2022-09-09T05:06:15;100560.81;;;12.63;98.82
74065;BME280;62421;51.412;5.432;2022-09-09T05:08:42;100562.78;;;12.61;98.82
74065;BME280;62421;51.412;5.432;2022-09-09T05:11:20;100555.94;;;12.57;98.93
74065;BME280;62421;51.412;5.432;2022-09-09T05:13:48;100550.53;;;12.57;98.76
74065;BME280;62421;51.412;5.432;2022-09-09T05:16:15;100549.81;;;12.55;99.04
74065;BME280;62421;51.412;5.432;2022-09-09T05:18:41;100557.88;;;12.55;99.02
74065;BME280;62421;51.412;5.432;2022-09-09T05:21:12;100557.03;;;12.55;99.14
74065;BME280;62421;51.412;5.432;2022-09-09T05:23:37;100552.22;;;12.58;99.07
74065;BME280;62421;51.412;5.432;2022-09-09T05:26:04;100546.00;;;12.58;99.23
74065;BME280;62421;51.412;5.432;2022-09-09T05:28:29;100560.31;;;12.58;99.05
74065;BME280;62421;51.412;5.432;2022-09-09T05:31:07;100557.50;;;12.60;99.26
74065;BME280;62421;51.412;5.432;2022-09-09T05:33:41;100556.53;;;12.61;99.67
74065;BME280;62421;51.412;5.432;2022-09-09T05:36:10;100559.97;;;12.63;99.50
74065;BME280;62421;51.412;5.432;2022-09-09T05:38:36;100557.00;;;12.66;99.69
74065;BME280;62421;51.412;5.432;2022-09-09T05:41:03;100555.88;;;12.68;99.71
74065;BME280;62421;51.412;5.432;2022-09-09T05:43:29;100560.31;;;12.69;99.69
74065;BME280;62421;51.412;5.432;2022-09-09T05:46:05;100561.16;;;12.70;99.58
74065;BME280;62421;51.412;5.432;2022-09-09T05:48:32;100573.63;;;12.71;99.73
74065;BME280;62421;51.412;5.432;2022-09-09T05:50:59;100578.25;;;12.80;100.00
74065;BME280;62421;51.412;5.432;2022-09-09T05:53:26;100568.66;;;12.87;100.00
74065;BME280;62421;51.412;5.432;2022-09-09T05:56:10;100569.72;;;12.96;100.00
74065;BME280;62421;51.412;5.432;2022-09-09T05:58:36;100575.22;;;13.06;100.00
74065;BME280;62421;51.412;5.432;2022-09-09T06:01:05;100573.69;;;13.13;100.00
74065;BME280;62421;51.412;5.432;2022-09-09T06:03:36;100575.75;;;13.21;100.00
74065;BME280;62421;51.412;5.432;2022-09-09T06:06:04;100572.78;;;13.24;99.69
74065;BME280;62421;51.412;5.432;2022-09-09T06:08:34;100564.41;;;13.27;99.73
74065;BME280;62421;51.412;5.432;2022-09-09T06:11:08;100569.31;;;13.33;99.83
74065;BME280;62421;51.412;5.432;2022-09-09T06:13:34;100571.69;;;13.47;99.76
74065;BME280;62421;51.412;5.432;2022-09-09T06:16:00;100565.97;;;13.62;99.82
74065;BME280;62421;51.412;5.432;2022-09-09T06:18:26;100563.75;;;13.77;98.89
74065;BME280;62421;51.412;5.432;2022-09-09T06:21:00;100560.69;;;13.91;98.97
74065;BME280;62421;51.412;5.432;2022-09-09T06:23:26;100564.28;;;14.01;98.39
74065;BME280;62421;51.412;5.432;2022-09-09T06:28:28;100568.72;;;14.12;97.79
74065;BME280;62421;51.412;5.432;2022-09-09T06:31:05;100564.44;;;14.09;96.79
74065;BME280;62421;51.412;5.432;2022-09-09T06:33:38;100567.25;;;13.98;96.24
74065;BME280;62421;51.412;5.432;2022-09-09T06:36:13;100555.56;;;13.88;96.75
74065;BME280;62421;51.412;5.432;2022-09-09T06:38:40;100562.34;;;13.82;97.15
74065;BME280;62421;51.412;5.432;2022-09-09T06:41:05;100559.78;;;13.81;97.31
74065;BME280;62421;51.412;5.432;2022-09-09T06:43:31;100561.91;;;13.77;97.37
74065;BME280;62421;51.412;5.432;2022-09-09T06:48:31;100560.47;;;13.73;97.19
74065;BME280;62421;51.412;5.432;2022-09-09T06:53:27;100553.50;;;13.70;97.35
74065;BME280;62421;51.412;5.432;2022-09-09T06:55:53;100554.34;;;13.71;96.61
74065;BME280;62421;51.412;5.432;2022-09-09T06:58:20;100551.66;;;13.71;97.70
74065;BME280;62421;51.412;5.432;2022-09-09T07:00:47;100555.06;;;13.73;97.13
74065;BME280;62421;51.412;5.432;2022-09-09T07:03:12;100562.16;;;13.74;97.41
74065;BME280;62421;51.412;5.432;2022-09-09T07:05:38;100561.91;;;13.77;97.15
74065;BME280;62421;51.412;5.432;2022-09-09T07:08:03;100557.94;;;13.81;97.57
74065;BME280;62421;51.412;5.432;2022-09-09T07:10:29;100563.78;;;13.86;96.74
74065;BME280;62421;51.412;5.432;2022-09-09T07:12:54;100553.75;;;13.98;96.80
74065;BME280;62421;51.412;5.432;2022-09-09T07:15:20;100566.44;;;14.17;97.45
74065;BME280;62421;51.412;5.432;2022-09-09T07:17:46;100563.41;;;14.41;96.31
74065;BME280;62421;51.412;5.432;2022-09-09T07:20:13;100566.59;;;14.66;96.31
74065;BME280;62421;51.412;5.432;2022-09-09T07:22:39;100560.78;;;14.80;95.25
74065;BME280;62421;51.412;5.432;2022-09-09T07:25:05;100562.47;;;14.81;92.84
74065;BME280;62421;51.412;5.432;2022-09-09T07:27:31;100560.06;;;14.78;92.80
74065;BME280;62421;51.412;5.432;2022-09-09T07:29:56;100554.94;;;14.85;93.34
74065;BME280;62421;51.412;5.432;2022-09-09T07:32:22;100549.94;;;15.00;92.54
74065;BME280;62421;51.412;5.432;2022-09-09T07:34:48;100557.19;;;15.09;92.17
74065;BME280;62421;51.412;5.432;2022-09-09T07:37:15;100555.47;;;15.18;91.39
74065;BME280;62421;51.412;5.432;2022-09-09T07:39:41;100558.75;;;15.21;91.92
74065;BME280;62421;51.412;5.432;2022-09-09T07:42:07;100566.44;;;15.16;91.23
74065;BME280;62421;51.412;5.432;2022-09-09T07:44:34;100555.59;;;15.16;89.80
74065;BME280;62421;51.412;5.432;2022-09-09T07:47:02;100561.28;;;15.23;91.02
74065;BME280;62421;51.412;5.432;2022-09-09T07:49:28;100560.88;;;15.27;90.21
74065;BME280;62421;51.412;5.432;2022-09-09T07:51:53;100553.75;;;15.26;90.07
74065;BME280;62421;51.412;5.432;2022-09-09T07:54:19;100552.34;;;15.32;90.61
74065;BME280;62421;51.412;5.432;2022-09-09T07:56:46;100553.31;;;15.31;89.90
74065;BME280;62421;51.412;5.432;2022-09-09T07:59:11;100560.00;;;15.27;90.53
74065;BME280;62421;51.412;5.432;2022-09-09T08:01:40;100557.88;;;15.30;89.77
74065;BME280;62421;51.412;5.432;2022-09-09T08:04:10;100568.53;;;15.42;89.98
74065;BME280;62421;51.412;5.432;2022-09-09T08:06:42;100568.34;;;15.53;89.43
74065;BME280;62421;51.412;5.432;2022-09-09T08:09:09;100562.81;;;15.54;89.44
74065;BME280;62421;51.412;5.432;2022-09-09T08:11:35;100558.78;;;15.68;89.79
74065;BME280;62421;51.412;5.432;2022-09-09T08:14:02;100563.75;;;15.83;88.81
74065;BME280;62421;51.412;5.432;2022-09-09T08:16:33;100562.56;;;15.95;87.43
74065;BME280;62421;51.412;5.432;2022-09-09T08:18:59;100572.47;;;16.04;87.04
74065;BME280;62421;51.412;5.432;2022-09-09T08:21:29;100563.91;;;16.09;86.81
74065;BME280;62421;51.412;5.432;2022-09-09T08:23:56;100568.47;;;16.08;86.49
74065;BME280;62421;51.412;5.432;2022-09-09T08:26:24;100562.91;;;16.10;85.56
74065;BME280;62421;51.412;5.432;2022-09-09T08:28:51;100558.47;;;16.09;84.48
74065;BME280;62421;51.412;5.432;2022-09-09T08:33:43;100554.78;;;16.10;84.29
74065;BME280;62421;51.412;5.432;2022-09-09T08:36:13;100571.44;;;16.15;84.73
74065;BME280;62421;51.412;5.432;2022-09-09T08:38:40;100565.72;;;16.18;83.68
74065;BME280;62421;51.412;5.432;2022-09-09T08:44:04;100576.34;;;16.57;83.41
74065;BME280;62421;51.412;5.432;2022-09-09T08:46:38;100575.25;;;16.68;83.30
74065;BME280;62421;51.412;5.432;2022-09-09T08:49:33;100577.97;;;16.68;83.54
74065;BME280;62421;51.412;5.432;2022-09-09T08:52:01;100579.97;;;16.66;81.16
74065;BME280;62421;51.412;5.432;2022-09-09T08:54:33;100576.25;;;16.67;81.62
74065;BME280;62421;51.412;5.432;2022-09-09T08:56:59;100580.69;;;16.68;81.30
74065;BME280;62421;51.412;5.432;2022-09-09T08:59:25;100584.09;;;16.70;82.02
74065;BME280;62421;51.412;5.432;2022-09-09T09:02:07;100587.09;;;16.67;82.52
74065;BME280;62421;51.412;5.432;2022-09-09T09:05:01;100586.47;;;16.55;82.52
74065;BME280;62421;51.412;5.432;2022-09-09T09:10:02;100591.41;;;16.42;82.37
74065;BME280;62421;51.412;5.432;2022-09-09T09:12:40;100594.88;;;16.52;81.65
74065;BME280;62421;51.412;5.432;2022-09-09T09:15:22;100603.13;;;16.60;82.77
74065;BME280;62421;51.412;5.432;2022-09-09T09:17:48;100611.22;;;16.70;80.45
74065;BME280;62421;51.412;5.432;2022-09-09T09:20:16;100600.75;;;16.75;82.16
74065;BME280;62421;51.412;5.432;2022-09-09T09:22:46;100610.16;;;16.81;81.74
74065;BME280;62421;51.412;5.432;2022-09-09T09:25:23;100598.63;;;16.96;83.26
74065;BME280;62421;51.412;5.432;2022-09-09T09:28:18;100605.38;;;17.10;82.26
74065;BME280;62421;51.412;5.432;2022-09-09T09:35:51;100596.38;;;17.54;78.91
74065;BME280;62421;51.412;5.432;2022-09-09T09:38:23;100595.22;;;17.83;78.66
74065;BME280;62421;51.412;5.432;2022-09-09T09:40:54;100596.38;;;18.06;77.33
74065;BME280;62421;51.412;5.432;2022-09-09T09:43:40;100591.53;;;18.18;77.62
74065;BME280;62421;51.412;5.432;2022-09-09T09:46:20;100595.03;;;18.10;76.86
74065;BME280;62421;51.412;5.432;2022-09-09T09:49:04;100593.13;;;17.76;78.28
74065;BME280;62421;51.412;5.432;2022-09-09T09:51:34;100599.88;;;17.46;78.36
74065;BME280;62421;51.412;5.432;2022-09-09T09:56:39;100600.63;;;17.30;80.50
74065;BME280;62421;51.412;5.432;2022-09-09T09:59:05;100597.28;;;17.18;79.83
74065;BME280;62421;51.412;5.432;2022-09-09T10:01:44;100597.78;;;16.96;79.93
74065;BME280;62421;51.412;5.432;2022-09-09T10:06:41;100602.28;;;16.77;81.35
74065;BME280;62421;51.412;5.432;2022-09-09T10:09:27;100608.72;;;16.76;82.04
74065;BME280;62421;51.412;5.432;2022-09-09T10:12:16;100603.44;;;16.75;81.55
74065;BME280;62421;51.412;5.432;2022-09-09T10:22:35;100612.06;;;16.15;85.99
74065;BME280;62421;51.412;5.432;2022-09-09T10:31:01;100619.47;;;15.85;86.46
74065;BME280;62421;51.412;5.432;2022-09-09T10:36:14;100624.00;;;15.94;88.19
74065;BME280;62421;51.412;5.432;2022-09-09T10:38:47;100619.88;;;15.90;88.04
74065;BME280;62421;51.412;5.432;2022-09-09T10:45:04;100626.31;;;16.17;87.16
74065;BME280;62421;51.412;5.432;2022-09-09T10:47:39;100625.59;;;16.52;88.33
74065;BME280;62421;51.412;5.432;2022-09-09T10:53:02;100619.69;;;17.20;84.69
74065;BME280;62421;51.412;5.432;2022-09-09T10:55:42;100607.50;;;17.43;84.34
74065;BME280;62421;51.412;5.432;2022-09-09T10:58:13;100617.19;;;17.45;83.63
74065;BME280;62421;51.412;5.432;2022-09-09T11:00:50;100614.78;;;17.42;83.14
74065;BME280;62421;51.412;5.432;2022-09-09T11:03:24;100605.91;;;17.58;84.27
74065;BME280;62421;51.412;5.432;2022-09-09T11:06:07;100608.97;;;17.81;83.95
74065;BME280;62421;51.412;5.432;2022-09-09T11:08:39;100606.41;;;18.06;83.48
74065;BME280;62421;51.412;5.432;2022-09-09T11:17:14;100615.47;;;18.65;82.48
74065;BME280;62421;51.412;5.432;2022-09-09T11:19:43;100613.59;;;18.66;80.89
74065;BME280;62421;51.412;5.432;2022-09-09T11:22:29;100610.78;;;18.83;80.45
74065;BME280;62421;51.412;5.432;2022-09-09T11:25:10;100614.19;;;18.86;80.03
74065;BME280;62421;51.412;5.432;2022-09-09T11:30:37;100615.94;;;19.11;79.30
74065;BME280;62421;51.412;5.432;2022-09-09T11:33:23;100611.16;;;18.89;78.90
74065;BME280;62421;51.412;5.432;2022-09-09T11:36:34;100604.09;;;18.70;79.31
74065;BME280;62421;51.412;5.432;2022-09-09T11:41:52;100607.38;;;18.39;78.48
74065;BME280;62421;51.412;5.432;2022-09-09T11:44:28;100604.91;;;18.11;79.17
74065;BME280;62421;51.412;5.432;2022-09-09T11:46:55;100606.69;;;17.94;79.74
74065;BME280;62421;51.412;5.432;2022-09-09T11:49:40;100617.84;;;17.91;81.69
74065;BME280;62421;51.412;5.432;2022-09-09T11:52:34;100601.56;;;17.91;81.26
74065;BME280;62421;51.412;5.432;2022-09-09T11:55:29;100600.91;;;17.97;81.38
74065;BME280;62421;51.412;5.432;2022-09-09T12:00:35;100603.69;;;18.48;79.22
74065;BME280;62421;51.412;5.432;2022-09-09T12:03:03;100597.44;;;18.64;78.50
74065;BME280;62421;51.412;5.432;2022-09-09T12:05:42;100593.09;;;18.79;79.42
74065;BME280;62421;51.412;5.432;2022-09-09T12:08:15;100602.16;;;19.05;76.62
74065;BME280;62421;51.412;5.432;2022-09-09T12:10:53;100592.28;;;19.28;77.46
74065;BME280;62421;51.412;5.432;2022-09-09T12:13:24;100593.81;;;19.47;76.26
74065;BME280;62421;51.412;5.432;2022-09-09T12:15:59;100588.53;;;19.54;76.37
74065;BME280;62421;51.412;5.432;2022-09-09T12:18:39;100589.69;;;19.68;75.23
74065;BME280;62421;51.412;5.432;2022-09-09T12:24:11;100583.41;;;19.75;73.32
74065;BME280;62421;51.412;5.432;2022-09-09T12:32:22;100587.84;;;19.35;74.00
74065;BME280;62421;51.412;5.432;2022-09-09T12:37:34;100583.78;;;19.07;75.67
74065;BME280;62421;51.412;5.432;2022-09-09T12:40:05;100581.22;;;18.80;74.20
74065;BME280;62421;51.412;5.432;2022-09-09T12:42:31;100579.44;;;18.63;76.68
74065;BME280;62421;51.412;5.432;2022-09-09T12:45:02;100572.44;;;18.60;76.26
74065;BME280;62421;51.412;5.432;2022-09-09T12:47:40;100560.91;;;18.67;75.79
74065;BME280;62421;51.412;5.432;2022-09-09T12:50:20;100564.00;;;18.72;75.60
74065;BME280;62421;51.412;5.432;2022-09-09T12:52:47;100564.31;;;18.69;76.36
74065;BME280;62421;51.412;5.432;2022-09-09T12:55:18;100569.81;;;18.85;76.75
74065;BME280;62421;51.412;5.432;2022-09-09T12:57:48;100564.19;;;18.95;74.60
74065;BME280;62421;51.412;5.432;2022-09-09T13:00:22;100565.06;;;18.95;75.29
74065;BME280;62421;51.412;5.432;2022-09-09T13:05:15;100558.94;;;19.42;73.71
74065;BME280;62421;51.412;5.432;2022-09-09T13:07:41;100562.81;;;19.64;73.12
74065;BME280;62421;51.412;5.432;2022-09-09T13:10:11;100558.91;;;19.75;72.41
74065;BME280;62421;51.412;5.432;2022-09-09T13:12:36;100559.22;;;19.72;70.24
74065;BME280;62421;51.412;5.432;2022-09-09T13:15:03;100555.97;;;19.85;70.75
74065;BME280;62421;51.412;5.432;2022-09-09T13:17:28;100553.00;;;20.11;69.22
74065;BME280;62421;51.412;5.432;2022-09-09T13:19:54;100558.03;;;20.31;69.59
74065;BME280;62421;51.412;5.432;2022-09-09T13:22:27;100560.53;;;20.32;69.73
74065;BME280;62421;51.412;5.432;2022-09-09T13:25:13;100559.75;;;20.15;71.08
74065;BME280;62421;51.412;5.432;2022-09-09T13:28:01;100559.75;;;19.76;73.40
74065;BME280;62421;51.412;5.432;2022-09-09T13:35:30;100545.72;;;18.31;77.09
74065;BME280;62421;51.412;5.432;2022-09-09T13:37:57;100547.84;;;18.11;80.31
74065;BME280;62421;51.412;5.432;2022-09-09T13:40:23;100549.19;;;18.15;81.45
74065;BME280;62421;51.412;5.432;2022-09-09T13:42:55;100558.66;;;18.54;79.90
74065;BME280;62421;51.412;5.432;2022-09-09T13:45:23;100560.97;;;18.83;77.44
74065;BME280;62421;51.412;5.432;2022-09-09T13:47:51;100560.66;;;19.02;76.83
74065;BME280;62421;51.412;5.432;2022-09-09T13:50:28;100557.75;;;19.20;74.43
74065;BME280;62421;51.412;5.432;2022-09-09T13:52:55;100549.75;;;19.27;72.39
74065;BME280;62421;51.412;5.432;2022-09-09T13:55:24;100545.66;;;19.31;74.11
74065;BME280;62421;51.412;5.432;2022-09-09T13:57:58;100552.44;;;19.52;75.35
74065;BME280;62421;51.412;5.432;2022-09-09T14:00:25;100553.44;;;19.59;70.93
74065;BME280;62421;51.412;5.432;2022-09-09T14:02:51;100550.41;;;19.46;68.70
74065;BME280;62421;51.412;5.432;2022-09-09T14:05:18;100544.66;;;19.32;71.57
74065;BME280;62421;51.412;5.432;2022-09-09T14:07:44;100545.84;;;19.21;72.87
74065;BME280;62421;51.412;5.432;2022-09-09T14:10:10;100549.63;;;19.12;70.99
74065;BME280;62421;51.412;5.432;2022-09-09T14:12:36;100547.88;;;19.03;72.71
74065;BME280;62421;51.412;5.432;2022-09-09T14:15:03;100548.41;;;18.98;73.77
74065;BME280;62421;51.412;5.432;2022-09-09T14:17:28;100547.19;;;18.93;74.84
74065;BME280;62421;51.412;5.432;2022-09-09T14:19:55;100544.31;;;18.86;73.70
74065;BME280;62421;51.412;5.432;2022-09-09T14:22:21;100542.13;;;19.06;72.27
74065;BME280;62421;51.412;5.432;2022-09-09T14:24:46;100544.47;;;19.42;73.15
74065;BME280;62421;51.412;5.432;2022-09-09T14:27:12;100537.63;;;19.71;70.46
74065;BME280;62421;51.412;5.432;2022-09-09T14:29:37;100548.63;;;19.94;69.06
74065;BME280;62421;51.412;5.432;2022-09-09T14:32:03;100540.88;;;20.14;67.50
74065;BME280;62421;51.412;5.432;2022-09-09T14:34:28;100546.94;;;20.24;68.22
74065;BME280;62421;51.412;5.432;2022-09-09T14:36:54;100538.78;;;20.24;67.12
74065;BME280;62421;51.412;5.432;2022-09-09T14:39:19;100538.88;;;20.08;68.53
74065;BME280;62421;51.412;5.432;2022-09-09T14:41:44;100538.91;;;19.91;68.78
74065;BME280;62421;51.412;5.432;2022-09-09T14:44:10;100535.03;;;19.86;67.33
74065;BME280;62421;51.412;5.432;2022-09-09T14:46:36;100531.28;;;19.87;70.10
74065;BME280;62421;51.412;5.432;2022-09-09T14:49:01;100534.69;;;19.80;67.46
74065;BME280;62421;51.412;5.432;2022-09-09T14:51:27;100542.03;;;19.72;67.30
74065;BME280;62421;51.412;5.432;2022-09-09T14:53:55;100536.59;;;19.63;66.67
74065;BME280;62421;51.412;5.432;2022-09-09T14:56:27;100536.63;;;19.47;68.86
74065;BME280;62421;51.412;5.432;2022-09-09T14:58:54;100541.09;;;19.32;68.95
74065;BME280;62421;51.412;5.432;2022-09-09T15:01:20;100534.97;;;19.21;70.52
74065;BME280;62421;51.412;5.432;2022-09-09T15:03:57;100529.53;;;19.21;69.61
74065;BME280;62421;51.412;5.432;2022-09-09T15:06:23;100535.66;;;19.23;68.66
74065;BME280;62421;51.412;5.432;2022-09-09T15:08:51;100541.94;;;19.16;71.04
74065;BME280;62421;51.412;5.432;2022-09-09T15:11:17;100538.00;;;19.18;69.12